createdAt,value
2019-03-19T09:39:17.868Z,97504.00
2019-03-19T09:40:17.848Z,97536.00
2019-03-19T09:41:17.831Z,54016.00
2019-03-19T09:42:17.823Z,98144.00
2019-03-19T09:43:17.823Z,98656.00
2019-03-19T09:44:17.798Z,91776.00
2019-03-19T09:45:17.784Z,88416.00
2019-03-19T09:46:18.643Z,94496.00
2019-03-19T09:47:17.762Z,90176.00
2019-03-19T09:48:17.768Z,98368.00
2019-03-19T09:49:17.742Z,101312.00
2019-03-19T09:50:17.753Z,103200.00
2019-03-19T09:51:17.717Z,65344.00
2019-03-19T09:52:17.707Z,28352.00
2019-03-19T09:53:18.757Z,32640.00
2019-03-19T09:54:17.684Z,27904.00
2019-03-19T09:55:17.670Z,22528.00
2019-03-19T09:56:17.663Z,16764.00
2019-03-19T09:57:17.650Z,14736.00
2019-03-19T09:58:17.636Z,13956.00
2019-03-19T09:59:26.840Z,15704.00
2019-03-19T10:00:18.617Z,14596.00
2019-03-19T10:01:17.603Z,14528.00
2019-03-19T10:02:17.592Z,89248.00
2019-03-19T10:03:17.581Z,106624.00
2019-03-19T10:04:17.586Z,107936.00
2019-03-19T10:05:17.558Z,106400.00
2019-03-19T10:06:17.547Z,17984.00
2019-03-19T10:07:17.536Z,16644.00
2019-03-19T10:08:17.523Z,28896.00
2019-03-19T10:09:17.575Z,109408.00
2019-03-19T10:10:17.576Z,109952.00
2019-03-19T10:11:17.488Z,113888.00
2019-03-19T10:12:17.477Z,91296.00
2019-03-19T10:13:17.468Z,68128.00
2019-03-19T10:14:17.475Z,119584.00
2019-03-19T10:15:17.450Z,70112.00
2019-03-19T10:16:17.434Z,113888.00
2019-03-19T10:17:17.421Z,96576.00
2019-03-19T10:18:17.409Z,31072.00
2019-03-19T10:19:17.417Z,65248.00
2019-03-19T10:20:18.078Z,122848.00
2019-03-19T10:21:17.376Z,95872.00
2019-03-19T10:22:17.365Z,64960.00
2019-03-19T10:23:17.353Z,65088.00
2019-03-19T10:24:17.358Z,75520.00
2019-03-19T10:25:17.334Z,82080.00
2019-03-19T10:26:17.316Z,40064.00
2019-03-19T10:27:19.567Z,30272.00
2019-03-19T10:28:17.318Z,28544.00
2019-03-19T10:29:17.310Z,35392.00
2019-03-19T10:30:17.274Z,26240.00
2019-03-19T10:31:17.266Z,97280.00
2019-03-19T10:32:17.250Z,32768.00
2019-03-19T10:33:17.238Z,22208.00
2019-03-19T10:34:17.228Z,18176.00
2019-03-19T10:35:17.235Z,16596.00
2019-03-19T10:36:17.206Z,16052.00
2019-03-19T10:37:17.194Z,15080.00
2019-03-19T10:38:17.181Z,14940.00
2019-03-19T10:39:17.174Z,14208.00
2019-03-19T10:40:17.177Z,14184.00
2019-03-19T10:41:17.146Z,14456.00
2019-03-19T10:42:17.136Z,14936.00
2019-03-19T10:43:17.126Z,16884.00
2019-03-19T10:44:17.113Z,20384.00
2019-03-19T10:45:17.123Z,86784.00
2019-03-19T10:46:17.092Z,80416.00
2019-03-19T10:47:17.077Z,110912.00
2019-03-19T10:48:17.065Z,110304.00
2019-03-19T10:49:17.054Z,111392.00
2019-03-19T10:50:17.070Z,108544.00
2019-03-19T10:51:17.034Z,108768.00
2019-03-19T10:52:17.027Z,103904.00
2019-03-19T10:53:17.007Z,41728.00
2019-03-19T10:54:16.999Z,104800.00
2019-03-19T10:55:17.005Z,104352.00
2019-03-19T10:56:16.975Z,100672.00
2019-03-19T10:57:16.962Z,99200.00
2019-03-19T10:58:16.951Z,98176.00
2019-03-19T10:59:16.940Z,96992.00
2019-03-19T11:00:16.953Z,96000.00
2019-03-19T11:01:16.920Z,94304.00
2019-03-19T11:02:16.906Z,96288.00
2019-03-19T11:03:16.898Z,96384.00
2019-03-19T16:06:46.819Z,6772.00
2019-03-19T16:07:46.807Z,7036.00
2019-03-19T16:08:46.778Z,6968.00
2019-03-19T16:09:46.766Z,6404.00
2019-03-19T16:10:46.752Z,5868.00
2019-03-19T16:11:46.744Z,5848.00
2019-03-19T16:12:46.757Z,5972.00
2019-03-19T16:13:46.718Z,5816.00
2019-03-19T16:14:46.752Z,5860.00
2019-03-19T16:15:46.695Z,5760.00
2019-03-19T16:16:46.687Z,5904.00
2019-03-19T16:17:46.697Z,5892.00
2019-03-19T16:18:46.677Z,5768.00
2019-03-19T16:19:46.648Z,6000.00
2019-03-19T16:20:46.639Z,6248.00
2019-03-19T16:21:47.595Z,6396.00
2019-03-19T16:22:46.619Z,6552.00
2019-03-19T16:23:46.631Z,6516.00
2019-03-19T16:24:46.591Z,6268.00
2019-03-19T16:25:46.579Z,6136.00
2019-03-19T16:26:46.570Z,5936.00
2019-03-19T16:27:46.559Z,5632.00
2019-03-19T16:28:46.563Z,5456.00
2019-03-19T16:29:46.535Z,5532.00
2019-03-19T16:30:46.528Z,5532.00
2019-03-19T16:31:50.883Z,5692.00
2019-03-19T16:32:46.501Z,5688.00
2019-03-19T16:33:46.508Z,5828.00
2019-03-19T16:34:46.476Z,6084.00
2019-03-19T16:35:46.465Z,6180.00
2019-03-19T16:36:46.454Z,6148.00
2019-03-19T16:37:46.441Z,5880.00
2019-03-19T16:38:46.453Z,5588.00
2019-03-19T16:39:46.428Z,5256.00
2019-03-19T16:40:46.412Z,4892.00
2019-03-19T16:41:46.395Z,4556.00
2019-03-19T16:42:46.399Z,4396.00
2019-03-19T16:43:46.373Z,4288.00
2019-03-19T16:44:46.378Z,4168.00
2019-03-19T16:45:46.348Z,4064.00
2019-03-19T16:46:46.343Z,3876.00
2019-03-19T16:47:46.327Z,3812.00
2019-03-19T16:48:46.344Z,3884.00
2019-03-19T16:49:46.335Z,3964.00
2019-03-19T16:50:46.296Z,3988.00
2019-03-19T16:51:46.286Z,3988.00
2019-03-19T16:52:46.269Z,3892.00
2019-03-19T16:53:46.258Z,3836.00
2019-03-19T16:54:46.265Z,3668.00
2019-03-19T16:55:46.237Z,3588.00
2019-03-19T16:56:46.225Z,3488.00
2019-03-19T16:57:46.208Z,3384.00
2019-03-19T16:58:46.200Z,3332.00
2019-03-19T16:59:46.211Z,3256.00
2019-03-19T17:00:46.180Z,3116.00
2019-03-19T17:01:46.168Z,2932.00
2019-03-19T17:02:46.156Z,2756.00
2019-03-19T17:03:46.139Z,2572.00
2019-03-19T17:04:46.132Z,2428.00
2019-03-19T17:05:46.142Z,2068.00
2019-03-19T17:06:46.105Z,1540.00
2019-03-19T17:07:46.098Z,2120.00
2019-03-19T17:08:46.082Z,2048.00
2019-03-19T17:09:46.090Z,1984.00
2019-03-19T17:10:46.079Z,1948.00
2019-03-19T17:11:46.048Z,1948.00
2019-03-19T17:12:46.036Z,1840.00
2019-03-19T17:13:46.022Z,1708.00
2019-03-19T17:14:46.010Z,1568.00
2019-03-19T17:15:46.020Z,1436.00
2019-03-19T17:16:45.987Z,1328.00
2019-03-19T17:17:45.977Z,1228.00
2019-03-19T17:18:45.967Z,1148.00
2019-03-19T17:19:45.953Z,1076.00
2019-03-19T17:20:45.965Z,972.00
2019-03-19T17:21:45.933Z,876.00
2019-03-19T17:22:45.918Z,732.00
2019-03-19T17:23:45.909Z,752.00
2019-03-19T17:24:45.895Z,720.00
2019-03-19T17:25:45.884Z,684.00
2019-03-19T17:26:45.894Z,652.00
2019-03-19T17:27:45.859Z,636.00
2019-03-19T17:28:45.849Z,584.00
2019-03-19T17:29:45.837Z,552.00
2019-03-19T17:30:45.827Z,520.00
2019-03-19T17:31:45.834Z,488.00
2019-03-19T17:32:45.802Z,468.00
2019-03-19T17:33:45.792Z,444.00
2019-03-19T17:34:45.817Z,408.00
2019-03-19T17:35:45.769Z,376.00
2019-03-19T17:36:45.779Z,344.00
2019-03-19T17:37:45.748Z,316.00
2019-03-19T17:38:45.733Z,292.00
2019-03-19T17:39:45.725Z,264.00
2019-03-19T17:40:45.710Z,240.00
2019-03-19T17:41:45.718Z,216.00
2019-03-19T17:42:45.689Z,200.00
2019-03-19T17:43:45.678Z,180.00
2019-03-19T17:44:45.665Z,164.00
2019-03-19T17:45:45.653Z,148.00
2019-03-19T17:46:45.661Z,132.00
2019-03-19T17:47:45.631Z,116.00
2019-03-19T17:48:45.618Z,104.00
2019-03-19T17:49:45.605Z,92.00
2019-03-19T17:50:45.595Z,76.00
2019-03-19T17:51:45.584Z,72.00
2019-03-19T17:52:45.644Z,60.00
2019-03-19T17:53:45.558Z,56.00
2019-03-19T17:54:45.548Z,44.00
2019-03-19T17:55:45.535Z,40.00
2019-03-19T17:56:45.526Z,32.00
2019-03-19T17:57:45.528Z,28.00
2019-03-19T17:58:45.499Z,24.00
2019-03-19T17:59:45.487Z,20.00
2019-03-19T18:00:45.477Z,16.00
2019-03-19T18:01:45.463Z,12.00
2019-03-19T18:02:45.470Z,12.00
2019-03-19T18:03:45.449Z,8.00
2019-03-19T18:04:45.429Z,8.00
2019-03-19T18:05:45.416Z,8.00
2019-03-19T18:06:45.405Z,4.00
2019-03-19T18:07:45.426Z,4.00
2019-03-19T18:08:45.381Z,4.00
2019-03-19T18:09:45.369Z,0.00
2019-03-19T18:10:45.405Z,4.00
